Time,TemperatureF,DewpointF,PressureIn,WindDirection,WindDirectionDegrees,WindSpeedMPH,WindSpeedGustMPH,Humidity,HourlyPrecipIn,Conditions,Clouds,dailyrainin,SolarRadiationWatts/m^2,SoftwareType,DateUTC
2013-11-07 00:02:00,51.8,41.0,30.22,NNW,343,0.0,1.0,66,0.00,,,0.00,0,weatherlink.com 1.10,2013-11-07 08:02:00,
2013-11-07 00:17:00,51.7,41.0,30.21,NNW,343,0.0,0.0,66,0.00,,,0.00,0,weatherlink.com 1.10,2013-11-07 08:17:00,
2013-11-07 00:32:00,51.4,40.0,30.21,NNW,343,0.0,0.0,66,0.00,,,0.00,0,weatherlink.com 1.10,2013-11-07 08:32:00,
2013-11-07 00:47:00,51.2,41.0,30.21,NNW,343,0.0,0.0,67,0.00,,,0.00,0,weatherlink.com 1.10,2013-11-07 08:47:00,
2013-11-07 01:02:00,51.3,40.0,30.21,NNW,343,0.0,3.0,66,0.00,,,0.00,0,weatherlink.com 1.10,2013-11-07 09:02:00,
2013-11-07 01:17:00,51.1,40.0,30.21,NNW,343,0.0,0.0,66,0.00,,,0.00,0,weatherlink.com 1.10,2013-11-07 09:17:00,
2013-11-07 01:32:00,50.8,40.0,30.21,NNW,343,0.0,0.0,67,0.00,,,0.00,0,weatherlink.com 1.10,2013-11-07 09:32:00,
2013-11-07 01:47:00,50.6,40.0,30.21,NNW,343,0.0,0.0,67,0.00,,,0.00,0,weatherlink.com 1.10,2013-11-07 09:47:00,
2013-11-07 02:02:00,50.4,40.0,30.21,NNW,343,0.0,0.0,68,0.00,,,0.00,0,weatherlink.com 1.10,2013-11-07 10:02:00,
2013-11-07 02:17:00,50.2,40.0,30.20,NNW,343,0.0,0.0,69,0.00,,,0.00,0,weatherlink.com 1.10,2013-11-07 10:17:00,
2013-11-07 02:32:00,50.0,40.0,30.20,NNW,343,0.0,0.0,69,0.00,,,0.00,0,weatherlink.com 1.10,2013-11-07 10:32:00,
2013-11-07 02:47:00,49.7,40.0,30.20,NNW,343,0.0,0.0,70,0.00,,,0.00,0,weatherlink.com 1.10,2013-11-07 10:47:00,
2013-11-07 03:02:00,49.4,40.0,30.20,NNW,343,0.0,0.0,70,0.00,,,0.00,0,weatherlink.com 1.10,2013-11-07 11:02:00,
2013-11-07 03:17:00,49.1,40.0,30.20,NNW,343,0.0,0.0,71,0.00,,,0.00,0,weatherlink.com 1.10,2013-11-07 11:17:00,
2013-11-07 03:32:00,48.8,40.0,30.19,NNW,343,0.0,0.0,71,0.00,,,0.00,0,weatherlink.com 1.10,2013-11-07 11:32:00,
2013-11-07 03:47:00,48.6,40.0,30.19,NNW,343,0.0,0.0,72,0.00,,,0.00,0,weatherlink.com 1.10,2013-11-07 11:47:00,
2013-11-07 04:02:00,48.1,39.0,30.19,NNW,343,0.0,0.0,72,0.00,,,0.00,0,weatherlink.com 1.10,2013-11-07 12:02:00,
2013-11-07 04:17:00,47.8,40.0,30.19,NNW,343,0.0,0.0,74,0.00,,,0.00,0,weatherlink.com 1.10,2013-11-07 12:17:00,
2013-11-07 04:32:00,47.7,40.0,30.19,NNW,343,0.0,0.0,74,0.00,,,0.00,0,weatherlink.com 1.10,2013-11-07 12:32:00,
2013-11-07 04:47:00,47.7,40.0,30.19,NNW,343,0.0,0.0,75,0.00,,,0.00,0,weatherlink.com 1.10,2013-11-07 12:47:00,
2013-11-07 05:02:00,47.6,40.0,30.19,NNW,343,0.0,0.0,74,0.00,,,0.00,0,weatherlink.com 1.10,2013-11-07 13:02:00,
2013-11-07 05:17:00,47.6,40.0,30.19,NNW,343,0.0,0.0,74,0.00,,,0.00,0,weatherlink.com 1.10,2013-11-07 13:17:00,
2013-11-07 05:32:00,47.6,40.0,30.20,NNW,343,0.0,0.0,74,0.00,,,0.00,0,weatherlink.com 1.10,2013-11-07 13:32:00,
2013-11-07 05:47:00,47.5,40.0,30.20,NNW,343,0.0,0.0,74,0.00,,,0.00,0,weatherlink.com 1.10,2013-11-07 13:47:00,
2013-11-07 06:02:00,47.3,40.0,30.19,NNW,343,0.0,0.0,75,0.00,,,0.00,0,weatherlink.com 1.10,2013-11-07 14:02:00,
2013-11-07 06:17:00,47.0,39.0,30.19,NNW,343,0.0,0.0,74,0.00,,,0.00,0,weatherlink.com 1.10,2013-11-07 14:17:00,
2013-11-07 06:33:00,46.7,39.0,30.20,NNW,343,0.0,0.0,74,0.00,,,0.00,0,weatherlink.com 1.10,2013-11-07 14:33:00,
2013-11-07 06:48:00,46.2,39.0,30.20,NNW,343,0.0,0.0,75,0.00,,,0.00,0,weatherlink.com 1.10,2013-11-07 14:48:00,
2013-11-07 07:18:00,45.8,39.0,30.21,NNW,343,0.0,1.0,77,0.00,,,0.00,19,weatherlink.com 1.10,2013-11-07 15:18:00,
2013-11-07 07:33:00,46.2,39.0,30.21,NNW,343,0.0,0.0,76,0.00,,,0.00,47,weatherlink.com 1.10,2013-11-07 15:33:00,
2013-11-07 07:48:00,47.2,40.0,30.21,NNW,343,0.0,0.0,76,0.00,,,0.00,63,weatherlink.com 1.10,2013-11-07 15:48:00,
2013-11-07 08:03:00,48.5,40.0,30.22,NNW,343,0.0,1.0,73,0.00,,,0.00,107,weatherlink.com 1.10,2013-11-07 16:03:00,
2013-11-07 08:18:00,49.5,40.0,30.22,NNW,343,0.0,0.0,69,0.00,,,0.00,62,weatherlink.com 1.10,2013-11-07 16:18:00,
2013-11-07 08:33:00,49.7,40.0,30.22,NNW,343,0.0,1.0,70,0.00,,,0.00,88,weatherlink.com 1.10,2013-11-07 16:33:00,
2013-11-07 08:48:00,50.6,40.0,30.22,NNW,343,1.0,2.0,67,0.00,,,0.00,114,weatherlink.com 1.10,2013-11-07 16:48:00,
2013-11-07 09:03:00,51.7,39.0,30.22,NNW,343,0.0,0.0,63,0.00,,,0.00,141,weatherlink.com 1.10,2013-11-07 17:03:00,
2013-11-07 09:18:00,52.7,39.0,30.23,NNW,343,0.0,0.0,59,0.00,,,0.00,193,weatherlink.com 1.10,2013-11-07 17:18:00,
2013-11-07 09:33:00,54.2,39.0,30.22,NNW,343,0.0,1.0,57,0.00,,,0.00,197,weatherlink.com 1.10,2013-11-07 17:33:00,
2013-11-07 09:48:00,55.4,39.0,30.23,NNW,343,0.0,1.0,54,0.00,,,0.00,156,weatherlink.com 1.10,2013-11-07 17:48:00,
2013-11-07 10:03:00,56.5,39.0,30.23,NNW,343,0.0,1.0,53,0.00,,,0.00,167,weatherlink.com 1.10,2013-11-07 18:03:00,
2013-11-07 10:18:00,58.4,39.0,30.22,NNE,24,0.0,2.0,49,0.00,,,0.00,519,weatherlink.com 1.10,2013-11-07 18:18:00,
2013-11-07 10:33:00,62.0,38.0,30.22,SE,135,0.0,4.0,42,0.00,,,0.00,550,weatherlink.com 1.10,2013-11-07 18:33:00,
2013-11-07 10:48:00,64.0,37.0,30.21,ESE,121,0.0,1.0,37,0.00,,,0.00,587,weatherlink.com 1.10,2013-11-07 18:48:00,
2013-11-07 11:03:00,66.7,39.0,30.20,East,97,0.0,5.0,36,0.00,,,0.00,527,weatherlink.com 1.10,2013-11-07 19:03:00,
2013-11-07 11:18:00,68.3,37.0,30.20,East,96,0.0,1.0,32,0.00,,,0.00,577,weatherlink.com 1.10,2013-11-07 19:18:00,
2013-11-07 11:33:00,69.3,36.0,30.19,East,97,1.0,3.0,30,0.00,,,0.00,559,weatherlink.com 1.10,2013-11-07 19:33:00,
2013-11-07 11:49:00,70.4,36.0,30.18,East,96,0.0,3.0,28,0.00,,,0.00,538,weatherlink.com 1.10,2013-11-07 19:49:00,
2013-11-07 12:04:00,71.9,36.0,30.17,ESE,113,0.0,1.0,27,0.00,,,0.00,621,weatherlink.com 1.10,2013-11-07 20:04:00,
2013-11-07 12:19:00,72.6,36.0,30.17,ESE,107,0.0,1.0,26,0.00,,,0.00,570,weatherlink.com 1.10,2013-11-07 20:19:00,
2013-11-07 12:34:00,73.1,36.0,30.16,West,260,1.0,3.0,26,0.00,,,0.00,554,weatherlink.com 1.10,2013-11-07 20:34:00,
2013-11-07 12:49:00,73.1,35.0,30.15,WSW,258,0.0,4.0,25,0.00,,,0.00,541,weatherlink.com 1.10,2013-11-07 20:49:00,
2013-11-07 13:04:00,73.8,35.0,30.14,West,262,0.0,3.0,24,0.00,,,0.00,524,weatherlink.com 1.10,2013-11-07 21:04:00,
2013-11-07 13:19:00,75.3,34.0,30.14,South,188,2.0,2.0,22,0.00,,,0.00,503,weatherlink.com 1.10,2013-11-07 21:19:00,
2013-11-07 13:34:00,76.0,34.0,30.14,West,262,1.0,3.0,22,0.00,,,0.00,480,weatherlink.com 1.10,2013-11-07 21:34:00,
2013-11-07 13:49:00,76.1,33.0,30.13,WSW,253,4.0,6.0,21,0.00,,,0.00,454,weatherlink.com 1.10,2013-11-07 21:49:00,
2013-11-07 14:04:00,76.2,33.0,30.13,West,264,0.0,4.0,21,0.00,,,0.00,425,weatherlink.com 1.10,2013-11-07 22:04:00,
2013-11-07 14:19:00,75.8,34.0,30.12,West,267,2.0,7.0,22,0.00,,,0.00,388,weatherlink.com 1.10,2013-11-07 22:19:00,
2013-11-07 14:34:00,75.8,35.0,30.12,West,262,3.0,6.0,23,0.00,,,0.00,353,weatherlink.com 1.10,2013-11-07 22:34:00,
2013-11-07 14:49:00,76.1,37.0,30.12,West,270,1.0,7.0,24,0.00,,,0.00,304,weatherlink.com 1.10,2013-11-07 22:49:00,
2013-11-07 15:04:00,76.0,37.0,30.12,West,265,7.0,9.0,24,0.00,,,0.00,272,weatherlink.com 1.10,2013-11-07 23:04:00,
2013-11-07 15:19:00,75.2,33.0,30.12,West,263,2.0,9.0,21,0.00,,,0.00,230,weatherlink.com 1.10,2013-11-07 23:19:00,
2013-11-07 15:34:00,74.6,33.0,30.11,WSW,246,5.0,8.0,22,0.00,,,0.00,192,weatherlink.com 1.10,2013-11-07 23:34:00,
2013-11-07 15:49:00,74.4,34.0,30.11,WSW,256,3.0,5.0,23,0.00,,,0.00,155,weatherlink.com 1.10,2013-11-07 23:49:00,
2013-11-07 16:04:00,73.8,36.0,30.11,WSW,249,2.0,6.0,25,0.00,,,0.00,109,weatherlink.com 1.10,2013-11-08 00:04:00,
2013-11-07 16:19:00,73.0,36.0,30.11,WSW,254,1.0,4.0,26,0.00,,,0.00,37,weatherlink.com 1.10,2013-11-08 00:19:00,
2013-11-07 16:34:00,71.6,36.0,30.11,WSW,258,2.0,4.0,27,0.00,,,0.00,19,weatherlink.com 1.10,2013-11-08 00:34:00,
2013-11-07 16:49:00,69.8,37.0,30.11,West,263,6.0,8.0,30,0.00,,,0.00,9,weatherlink.com 1.10,2013-11-08 00:49:00,
2013-11-07 17:04:00,68.1,39.0,30.11,West,263,2.0,5.0,35,0.00,,,0.00,0,weatherlink.com 1.10,2013-11-08 01:04:00,
2013-11-07 17:19:00,66.8,41.0,30.11,West,263,0.0,1.0,39,0.00,,,0.00,0,weatherlink.com 1.10,2013-11-08 01:19:00,
2013-11-07 17:34:00,65.5,42.0,30.12,West,263,2.0,2.0,42,0.00,,,0.00,0,weatherlink.com 1.10,2013-11-08 01:34:00,
2013-11-07 17:49:00,64.3,41.0,30.12,West,263,1.0,4.0,43,0.00,,,0.00,0,weatherlink.com 1.10,2013-11-08 01:49:00,
2013-11-07 18:04:00,63.5,41.0,30.13,West,262,0.0,3.0,44,0.00,,,0.00,0,weatherlink.com 1.10,2013-11-08 02:04:00,
2013-11-07 18:19:00,62.7,40.0,30.13,West,261,0.0,2.0,44,0.00,,,0.00,0,weatherlink.com 1.10,2013-11-08 02:19:00,
2013-11-07 18:34:00,61.9,41.0,30.13,West,261,0.0,0.0,46,0.00,,,0.00,0,weatherlink.com 1.10,2013-11-08 02:34:00,
2013-11-07 18:49:00,60.7,41.0,30.14,West,262,0.0,1.0,49,0.00,,,0.00,0,weatherlink.com 1.10,2013-11-08 02:49:00,
2013-11-07 19:04:00,59.5,41.0,30.13,West,262,0.0,0.0,50,0.00,,,0.00,0,weatherlink.com 1.10,2013-11-08 03:04:00,
2013-11-07 19:19:00,59.5,40.0,30.13,SSE,163,1.0,3.0,48,0.00,,,0.00,0,weatherlink.com 1.10,2013-11-08 03:19:00,
2013-11-07 19:34:00,59.7,40.0,30.13,SSE,163,0.0,2.0,48,0.00,,,0.00,0,weatherlink.com 1.10,2013-11-08 03:34:00,
2013-11-07 19:49:00,59.2,40.0,30.14,SSE,163,0.0,0.0,49,0.00,,,0.00,0,weatherlink.com 1.10,2013-11-08 03:49:00,
2013-11-07 20:04:00,58.0,40.0,30.13,SSE,163,0.0,0.0,51,0.00,,,0.00,0,weatherlink.com 1.10,2013-11-08 04:04:00,
2013-11-07 20:19:00,56.8,40.0,30.13,SSE,163,0.0,0.0,54,0.00,,,0.00,0,weatherlink.com 1.10,2013-11-08 04:19:00,
2013-11-07 20:34:00,55.6,40.0,30.13,SSE,163,0.0,1.0,56,0.00,,,0.00,0,weatherlink.com 1.10,2013-11-08 04:34:00,
2013-11-07 20:49:00,54.9,39.0,30.14,SSE,163,0.0,0.0,56,0.00,,,0.00,0,weatherlink.com 1.10,2013-11-08 04:49:00,
2013-11-07 21:04:00,54.2,38.0,30.14,SSE,163,0.0,1.0,55,0.00,,,0.00,0,weatherlink.com 1.10,2013-11-08 05:04:00,
2013-11-07 21:19:00,53.7,38.0,30.14,SSE,163,0.0,1.0,55,0.00,,,0.00,0,weatherlink.com 1.10,2013-11-08 05:19:00,
2013-11-07 21:34:00,53.2,38.0,30.14,SSE,163,0.0,0.0,57,0.00,,,0.00,0,weatherlink.com 1.10,2013-11-08 05:34:00,
2013-11-07 21:49:00,52.6,38.0,30.14,SSE,163,0.0,0.0,58,0.00,,,0.00,0,weatherlink.com 1.10,2013-11-08 05:49:00,
2013-11-07 22:04:00,51.9,37.0,30.14,SSE,163,0.0,0.0,57,0.00,,,0.00,0,weatherlink.com 1.10,2013-11-08 06:04:00,
2013-11-07 22:19:00,51.3,38.0,30.13,SSE,163,0.0,0.0,60,0.00,,,0.00,0,weatherlink.com 1.10,2013-11-08 06:19:00,
2013-11-07 22:34:00,51.0,37.0,30.13,SSE,163,0.0,0.0,59,0.00,,,0.00,0,weatherlink.com 1.10,2013-11-08 06:34:00,
2013-11-07 22:49:00,50.5,37.0,30.13,SSE,163,0.0,0.0,60,0.00,,,0.00,0,weatherlink.com 1.10,2013-11-08 06:49:00,
2013-11-07 23:04:00,50.1,37.0,30.13,SSE,163,0.0,0.0,62,0.00,,,0.00,0,weatherlink.com 1.10,2013-11-08 07:04:00,
2013-11-07 23:19:00,49.7,37.0,30.13,SSE,162,0.0,0.0,63,0.00,,,0.00,0,weatherlink.com 1.10,2013-11-08 07:19:00,
2013-11-07 23:34:00,49.5,37.0,30.13,SSE,164,0.0,0.0,63,0.00,,,0.00,0,weatherlink.com 1.10,2013-11-08 07:34:00,
2013-11-07 23:49:00,49.2,38.0,30.13,SSE,163,0.0,0.0,65,0.00,,,0.00,0,weatherlink.com 1.10,2013-11-08 07:49:00,